createdAt,value
2018-04-30T00:00:56.814Z,30.60
2018-04-30T00:03:24.394Z,30.17
2018-04-30T00:05:51.986Z,29.93
2018-04-30T00:08:19.568Z,33.53
2018-04-30T00:10:47.148Z,30.13
2018-04-30T00:13:14.732Z,19.03
2018-04-30T00:15:43.080Z,21.40
2018-04-30T00:18:10.675Z,31.17
2018-04-30T00:20:38.238Z,24.43
2018-04-30T00:23:06.579Z,15.10
2018-04-30T00:25:34.150Z,6.53
2018-04-30T00:28:01.729Z,5.43
2018-04-30T00:30:29.319Z,8.73
2018-04-30T00:32:56.899Z,7.77
2018-04-30T00:35:24.507Z,7.13
2018-04-30T00:37:52.071Z,13.17
2018-04-30T00:40:20.273Z,9.17
2018-04-30T00:42:47.853Z,9.73
2018-04-30T00:45:16.212Z,7.63
2018-04-30T00:47:43.790Z,6.07
2018-04-30T00:50:12.136Z,5.07
2018-04-30T00:52:39.803Z,5.50
2018-04-30T00:55:07.356Z,6.53
2018-04-30T00:57:34.944Z,4.67
2018-04-30T01:00:02.513Z,4.97
2018-04-30T01:02:30.083Z,5.33
2018-04-30T01:04:57.678Z,3.37
2018-04-30T01:07:25.250Z,4.37
2018-04-30T01:09:52.851Z,4.10
2018-04-30T01:12:20.489Z,4.90
2018-04-30T01:14:48.093Z,3.63
2018-04-30T01:17:15.675Z,6.07
2018-04-30T01:19:43.242Z,4.87
2018-04-30T01:22:10.835Z,6.30
2018-04-30T01:24:38.437Z,4.70
2018-04-30T01:27:06.101Z,4.30
2018-04-30T01:29:33.683Z,6.77
2018-04-30T01:32:01.238Z,5.63
2018-04-30T01:34:28.893Z,6.13
2018-04-30T01:36:56.466Z,7.50
2018-04-30T01:39:24.070Z,5.50
2018-04-30T01:41:51.661Z,9.50
2018-04-30T01:44:19.990Z,5.70
2018-04-30T01:46:47.582Z,5.77
2018-04-30T01:49:15.179Z,7.00
2018-04-30T01:51:42.773Z,6.77
2018-04-30T01:54:10.357Z,9.53
2018-04-30T01:56:37.975Z,11.10
2018-04-30T01:59:05.610Z,13.60
2018-04-30T02:01:33.197Z,10.70
2018-04-30T02:04:01.531Z,11.67
2018-04-30T02:06:29.756Z,16.80
2018-04-30T02:08:57.385Z,18.10
2018-04-30T02:11:24.948Z,20.33
2018-04-30T02:13:52.530Z,27.37
2018-04-30T02:16:20.142Z,24.50
2018-04-30T02:18:47.703Z,24.30
2018-04-30T02:21:15.268Z,14.57
2018-04-30T02:23:42.842Z,10.23
2018-04-30T02:26:10.427Z,10.67
2018-04-30T02:28:37.994Z,11.73
2018-04-30T02:31:05.571Z,11.07
2018-04-30T02:33:33.244Z,11.87
2018-04-30T02:36:00.753Z,12.43
2018-04-30T02:38:28.325Z,10.97
2018-04-30T02:40:55.912Z,9.07
2018-04-30T02:43:23.515Z,10.30
2018-04-30T02:45:51.115Z,11.03
2018-04-30T02:48:18.694Z,8.20
2018-04-30T02:50:46.254Z,10.33
2018-04-30T02:53:13.837Z,9.33
2018-04-30T02:55:41.422Z,9.93
2018-04-30T02:58:09.010Z,9.63
2018-04-30T03:00:36.610Z,9.40
2018-04-30T03:03:04.194Z,9.80
2018-04-30T03:05:31.766Z,10.10
2018-04-30T03:07:59.351Z,10.07
2018-04-30T03:10:26.919Z,10.83
2018-04-30T03:12:54.519Z,10.50
2018-04-30T03:15:22.124Z,10.47
2018-04-30T03:17:49.710Z,12.50
2018-04-30T03:20:17.278Z,13.80
2018-04-30T03:22:44.887Z,12.43
2018-04-30T03:25:12.481Z,13.53
2018-04-30T03:27:40.065Z,13.43
2018-04-30T03:30:07.659Z,13.77
2018-04-30T03:32:36.071Z,13.53
2018-04-30T03:35:03.661Z,14.40
2018-04-30T03:37:31.271Z,15.77
2018-04-30T03:39:58.879Z,14.43
2018-04-30T03:42:26.503Z,17.10
2018-04-30T03:44:54.855Z,15.33
2018-04-30T03:47:22.444Z,15.93
2018-04-30T03:49:50.024Z,14.23
2018-04-30T03:52:17.611Z,14.57
2018-04-30T03:54:45.192Z,15.17
2018-04-30T03:57:13.549Z,14.33
2018-04-30T03:59:41.136Z,15.33
2018-04-30T04:02:20.656Z,14.53
2018-04-30T04:05:00.073Z,13.27
2018-04-30T04:07:28.426Z,13.33
2018-04-30T04:09:56.047Z,16.70
2018-04-30T04:12:23.633Z,35.50
2018-04-30T04:14:51.721Z,36.83
2018-04-30T04:17:19.309Z,32.00
2018-04-30T04:19:46.903Z,17.30
2018-04-30T04:22:15.237Z,18.20
2018-04-30T04:24:42.823Z,15.23
2018-04-30T04:27:12.029Z,13.60
2018-04-30T04:29:39.691Z,13.70
2018-04-30T04:32:07.286Z,13.80
2018-04-30T04:34:34.900Z,13.50
2018-04-30T04:37:02.512Z,12.60
2018-04-30T04:39:30.126Z,12.43
2018-04-30T04:41:57.719Z,13.00
2018-04-30T04:44:25.346Z,11.87
2018-04-30T04:46:52.910Z,12.10
2018-04-30T04:49:20.519Z,11.07
2018-04-30T04:51:48.110Z,12.83
2018-04-30T04:54:15.698Z,11.70
2018-04-30T04:56:43.278Z,12.77
2018-04-30T04:59:11.617Z,12.77
2018-04-30T05:01:39.987Z,11.77
2018-04-30T05:04:08.337Z,20.17
2018-04-30T05:06:35.908Z,20.30
2018-04-30T05:09:03.542Z,14.97
2018-04-30T05:11:31.109Z,14.03
2018-04-30T05:13:58.685Z,12.80
2018-04-30T05:16:27.080Z,12.03
2018-04-30T05:18:54.667Z,13.40
2018-04-30T05:21:22.230Z,13.00
2018-04-30T05:23:49.841Z,14.07
2018-04-30T05:26:17.446Z,13.90
2018-04-30T05:28:45.058Z,12.67
2018-04-30T05:31:13.382Z,13.83
2018-04-30T05:33:40.971Z,13.20
2018-04-30T05:36:08.564Z,13.37
2018-04-30T05:38:36.884Z,12.03
2018-04-30T05:41:04.489Z,13.77
2018-04-30T05:43:32.069Z,14.70
2018-04-30T05:46:00.413Z,13.90
2018-04-30T05:48:27.993Z,15.47
2018-04-30T05:50:55.624Z,17.03
2018-04-30T05:53:23.249Z,18.47
2018-04-30T05:55:51.622Z,19.50
2018-04-30T05:58:19.195Z,20.43
2018-04-30T06:00:47.564Z,20.27
2018-04-30T06:03:15.155Z,20.90
2018-04-30T06:05:43.518Z,21.20
2018-04-30T06:08:11.879Z,20.00
2018-04-30T06:10:39.456Z,19.93
2018-04-30T06:13:07.043Z,20.47
2018-04-30T06:15:35.403Z,20.30
2018-04-30T06:18:02.993Z,20.13
2018-04-30T06:20:31.351Z,17.90
2018-04-30T06:22:59.507Z,21.63
2018-04-30T06:25:27.082Z,22.30
2018-04-30T06:27:54.676Z,20.47
2018-04-30T06:30:23.019Z,22.47
2018-04-30T06:32:51.429Z,20.97
2018-04-30T06:35:19.027Z,21.47
2018-04-30T06:37:46.643Z,22.43
2018-04-30T06:40:14.263Z,23.43
2018-04-30T06:42:41.927Z,21.30
2018-04-30T06:45:09.536Z,22.97
2018-04-30T06:47:37.156Z,21.93
2018-04-30T06:50:04.778Z,23.07
2018-04-30T06:52:32.376Z,21.27
2018-04-30T06:55:00.730Z,20.53
2018-04-30T06:57:28.304Z,21.70
2018-04-30T06:59:56.685Z,22.20
2018-04-30T07:02:24.277Z,23.27
2018-04-30T07:04:51.839Z,22.03
2018-04-30T07:07:20.183Z,19.40
2018-04-30T07:09:47.764Z,20.63
2018-04-30T07:12:15.352Z,20.73
2018-04-30T07:14:43.733Z,21.13
2018-04-30T07:17:11.306Z,22.93
2018-04-30T07:19:39.656Z,20.60
2018-04-30T07:22:07.345Z,19.37
2018-04-30T07:24:34.946Z,20.10
2018-04-30T07:27:02.533Z,18.30
2018-04-30T07:29:30.122Z,17.47
2018-04-30T07:31:57.701Z,17.10
2018-04-30T07:34:25.312Z,16.83
2018-04-30T07:36:52.890Z,14.43
2018-04-30T07:39:20.461Z,13.80
2018-04-30T07:41:48.067Z,13.13
2018-04-30T07:44:15.680Z,15.90
2018-04-30T07:46:43.256Z,15.43
2018-04-30T07:49:10.880Z,13.67
2018-04-30T07:51:38.425Z,15.50
2018-04-30T07:54:05.993Z,15.93
2018-04-30T07:56:34.333Z,17.90
2018-04-30T07:59:01.899Z,17.37
2018-04-30T08:01:30.388Z,18.23
2018-04-30T08:03:58.463Z,14.97
2018-04-30T08:06:26.114Z,19.37
2018-04-30T08:08:53.743Z,13.90
2018-04-30T08:11:22.149Z,13.33
2018-04-30T08:13:49.736Z,12.43
2018-04-30T08:16:18.060Z,11.90
2018-04-30T08:18:45.679Z,10.47
2018-04-30T08:21:13.284Z,11.43
2018-04-30T08:23:40.854Z,11.37
2018-04-30T08:26:09.214Z,10.00
2018-04-30T08:28:36.850Z,10.27
2018-04-30T08:31:04.456Z,10.23
2018-04-30T08:33:32.055Z,10.67
2018-04-30T08:35:59.647Z,12.63
2018-04-30T08:38:27.250Z,8.77
2018-04-30T08:40:54.841Z,9.33
2018-04-30T08:43:23.188Z,10.37
2018-04-30T08:45:50.749Z,10.37
2018-04-30T08:48:18.368Z,12.37
2018-04-30T08:50:45.948Z,9.37
2018-04-30T08:53:13.570Z,11.60
2018-04-30T08:55:41.966Z,9.67
2018-04-30T08:58:10.304Z,10.97
2018-04-30T09:00:37.939Z,9.33
2018-04-30T09:03:06.248Z,8.27
2018-04-30T09:05:33.859Z,11.33
2018-04-30T09:08:01.504Z,8.77
2018-04-30T09:10:29.120Z,8.10
2018-04-30T09:12:56.717Z,8.57
2018-04-30T09:15:24.286Z,7.63
2018-04-30T09:17:52.852Z,8.03
2018-04-30T09:20:20.426Z,9.57
2018-04-30T09:22:48.041Z,7.83
2018-04-30T09:25:16.390Z,6.60
2018-04-30T09:27:43.958Z,6.53
2018-04-30T09:30:11.577Z,6.27
2018-04-30T09:32:39.163Z,8.00
2018-04-30T09:35:06.788Z,6.67
2018-04-30T09:37:35.153Z,5.50
2018-04-30T09:40:03.520Z,6.40
2018-04-30T09:42:31.091Z,6.53
2018-04-30T09:44:59.464Z,6.47
2018-04-30T09:47:27.069Z,6.17
2018-04-30T09:49:54.637Z,6.80
2018-04-30T09:52:22.225Z,6.17
2018-04-30T09:54:49.818Z,6.40
2018-04-30T09:57:17.453Z,9.17
2018-04-30T09:59:45.035Z,6.00
2018-04-30T10:02:12.616Z,6.60
2018-04-30T10:04:40.181Z,5.43
2018-04-30T10:07:07.748Z,5.70
2018-04-30T10:09:35.355Z,6.63
2018-04-30T10:12:03.719Z,5.80
2018-04-30T10:14:32.169Z,5.63
2018-04-30T10:16:59.733Z,7.67
2018-04-30T10:19:27.343Z,6.73
2018-04-30T10:21:55.707Z,4.90
2018-04-30T10:24:23.277Z,6.33
2018-04-30T10:26:50.862Z,6.20
2018-04-30T10:29:19.240Z,7.07
2018-04-30T10:31:47.609Z,7.17
2018-04-30T10:34:16.028Z,10.53
2018-04-30T10:36:43.625Z,7.60
2018-04-30T10:39:11.242Z,7.57
2018-04-30T10:41:39.591Z,7.47
2018-04-30T10:44:07.191Z,7.93
2018-04-30T10:46:34.792Z,6.40
2018-04-30T10:49:02.414Z,8.57
2018-04-30T10:51:30.856Z,6.17
2018-04-30T10:53:59.181Z,6.43
2018-04-30T10:56:26.751Z,6.77
2018-04-30T10:58:55.080Z,7.10
2018-04-30T11:01:22.706Z,6.30
2018-04-30T11:03:50.322Z,6.30
2018-04-30T11:06:17.890Z,5.37
2018-04-30T11:08:45.488Z,6.83
2018-04-30T11:11:13.838Z,4.03
2018-04-30T11:13:41.404Z,4.33
2018-04-30T11:16:08.997Z,4.50
2018-04-30T11:18:37.359Z,5.70
2018-04-30T11:21:04.951Z,4.47
2018-04-30T11:23:33.307Z,5.90
2018-04-30T11:26:00.887Z,5.77
2018-04-30T11:28:28.472Z,4.10
2018-04-30T11:30:56.069Z,4.47
2018-04-30T11:33:23.682Z,4.53
2018-04-30T11:35:52.036Z,5.60
2018-04-30T11:38:19.631Z,4.90
2018-04-30T11:40:48.020Z,3.93
2018-04-30T11:43:16.364Z,4.27
2018-04-30T11:45:43.946Z,5.63
2018-04-30T11:48:12.212Z,5.23
2018-04-30T11:50:39.813Z,2.83
2018-04-30T11:53:08.144Z,3.07
2018-04-30T11:55:35.790Z,5.13
2018-04-30T11:58:04.223Z,2.80
2018-04-30T12:00:31.803Z,2.20
2018-04-30T12:03:00.150Z,2.27
2018-04-30T12:05:27.761Z,2.47
2018-04-30T12:07:55.353Z,3.53
2018-04-30T12:10:22.948Z,2.97
2018-04-30T12:12:50.556Z,2.53
2018-04-30T12:15:18.912Z,3.37
2018-04-30T12:17:46.547Z,2.07
2018-04-30T12:20:14.881Z,1.83
2018-04-30T12:22:42.489Z,3.50
2018-04-30T12:25:10.216Z,2.83
2018-04-30T12:27:37.818Z,3.20
2018-04-30T12:30:05.423Z,1.40
2018-04-30T12:32:33.083Z,1.50
2018-04-30T12:35:03.552Z,2.20
2018-04-30T12:37:31.224Z,3.13
2018-04-30T12:39:58.859Z,4.83
2018-04-30T12:42:26.587Z,1.53
2018-04-30T12:44:54.208Z,1.33
2018-04-30T12:47:21.798Z,1.60
2018-04-30T12:49:49.392Z,1.53
2018-04-30T12:52:16.999Z,1.70
2018-04-30T12:54:45.365Z,2.17
2018-04-30T12:57:12.945Z,2.47
2018-04-30T12:59:40.539Z,1.50
2018-04-30T13:02:08.124Z,3.00
2018-04-30T13:04:35.693Z,1.60
2018-04-30T13:07:03.292Z,2.30
2018-04-30T13:09:30.887Z,4.70
2018-04-30T13:12:00.042Z,1.60
2018-04-30T13:14:27.655Z,4.03
2018-04-30T13:16:55.254Z,3.90
2018-04-30T13:19:22.893Z,4.07
2018-04-30T13:21:51.563Z,3.60
2018-04-30T13:24:19.926Z,3.53
2018-04-30T13:26:47.514Z,4.77
2018-04-30T13:29:15.845Z,2.63
2018-04-30T13:31:43.464Z,1.20
2018-04-30T13:34:11.820Z,1.13
2018-04-30T13:36:39.424Z,1.00
2018-04-30T13:39:07.883Z,2.67
2018-04-30T13:41:35.470Z,0.90
2018-04-30T13:44:03.089Z,1.37
2018-04-30T13:46:31.617Z,2.73
2018-04-30T13:48:59.963Z,2.23
2018-04-30T13:51:27.603Z,1.90
2018-04-30T13:53:55.244Z,2.60
2018-04-30T13:56:23.162Z,3.80
2018-04-30T13:58:51.576Z,4.27
2018-04-30T14:01:19.156Z,2.70
2018-04-30T14:03:47.559Z,3.50
2018-04-30T14:06:15.149Z,2.83
2018-04-30T14:08:43.445Z,1.37
2018-04-30T14:11:11.072Z,1.33
2018-04-30T14:13:38.661Z,1.17
2018-04-30T14:16:06.280Z,2.47
2018-04-30T14:18:33.862Z,1.10
2018-04-30T14:21:02.139Z,1.23
2018-04-30T14:23:29.706Z,3.93
2018-04-30T14:25:57.302Z,1.90
2018-04-30T14:28:24.891Z,1.47
2018-04-30T14:30:52.499Z,2.57
2018-04-30T14:33:20.118Z,2.60
2018-04-30T14:35:47.704Z,6.07
2018-04-30T14:38:15.356Z,1.57
2018-04-30T14:40:42.961Z,1.57
2018-04-30T14:43:10.557Z,1.17
2018-04-30T14:45:38.161Z,3.57
2018-04-30T14:48:06.703Z,4.43
2018-04-30T14:50:34.427Z,4.30
2018-04-30T14:53:02.120Z,1.23
2018-04-30T14:55:31.543Z,1.70
2018-04-30T14:57:59.138Z,1.00
2018-04-30T15:00:26.761Z,1.27
2018-04-30T15:02:54.315Z,1.00
2018-04-30T15:05:21.929Z,0.90
2018-04-30T15:07:49.520Z,2.27
2018-04-30T15:10:17.156Z,0.93
2018-04-30T15:12:44.730Z,2.17
2018-04-30T15:15:12.314Z,3.20
2018-04-30T15:17:39.900Z,2.73
2018-04-30T15:20:07.470Z,1.00
2018-04-30T15:22:35.810Z,2.53
2018-04-30T15:25:03.480Z,0.80
2018-04-30T15:27:31.081Z,1.17
2018-04-30T15:29:59.510Z,1.43
2018-04-30T15:32:27.096Z,1.63
2018-04-30T15:34:54.751Z,0.93
2018-04-30T15:37:23.165Z,1.00
2018-04-30T15:39:50.766Z,1.00
2018-04-30T15:42:18.959Z,2.67
2018-04-30T15:44:46.554Z,0.80
2018-04-30T15:47:14.179Z,0.90
2018-04-30T15:49:41.777Z,0.80
2018-04-30T15:52:09.354Z,2.37
2018-04-30T15:54:36.962Z,1.87
2018-04-30T15:57:06.070Z,5.70
2018-04-30T15:59:33.633Z,0.90
2018-04-30T16:02:01.205Z,0.87
2018-04-30T16:04:28.796Z,0.97
2018-04-30T16:06:56.400Z,1.57
2018-04-30T16:09:24.005Z,0.67
2018-04-30T16:11:51.605Z,0.80
2018-04-30T16:14:19.207Z,0.70
2018-04-30T16:16:47.557Z,0.67
2018-04-30T16:19:15.115Z,1.73
2018-04-30T16:21:42.801Z,0.80
2018-04-30T16:24:10.383Z,0.73
2018-04-30T16:26:38.726Z,0.57
2018-04-30T16:29:06.332Z,4.57
2018-04-30T16:31:34.705Z,2.07
2018-04-30T16:34:02.332Z,1.60
2018-04-30T16:36:29.930Z,1.57
2018-04-30T16:38:57.508Z,2.77
2018-04-30T16:41:25.123Z,1.20
2018-04-30T16:43:52.718Z,1.40
2018-04-30T16:46:20.302Z,0.70
2018-04-30T16:48:47.971Z,1.33
2018-04-30T16:51:16.358Z,1.43
2018-04-30T16:53:44.027Z,1.07
2018-04-30T16:56:12.381Z,1.63
2018-04-30T16:58:39.957Z,1.70
2018-04-30T17:01:07.569Z,1.23
2018-04-30T17:03:35.145Z,2.33
2018-04-30T17:06:02.726Z,3.13
2018-04-30T17:08:30.292Z,1.67
2018-04-30T17:10:57.917Z,0.80
2018-04-30T17:13:25.484Z,2.47
2018-04-30T17:15:53.083Z,1.00
2018-04-30T17:18:20.649Z,2.27
2018-04-30T17:20:48.224Z,1.67
2018-04-30T17:23:15.815Z,1.20
2018-04-30T17:25:44.167Z,2.30
2018-04-30T17:28:11.753Z,1.17
2018-04-30T17:30:39.339Z,1.77
2018-04-30T17:33:06.929Z,0.90
2018-04-30T17:35:34.498Z,1.10
2018-04-30T17:38:02.081Z,2.27
2018-04-30T17:40:29.675Z,1.00
2018-04-30T17:42:57.282Z,1.00
2018-04-30T17:45:24.889Z,0.80
2018-04-30T17:47:52.462Z,0.80
2018-04-30T17:50:20.814Z,0.90
2018-04-30T17:52:48.429Z,1.00
2018-04-30T17:55:17.294Z,1.00
2018-04-30T17:57:44.874Z,1.77
2018-04-30T18:00:12.457Z,1.10
2018-04-30T18:02:40.802Z,1.53
2018-04-30T18:05:08.422Z,1.43
2018-04-30T18:07:36.004Z,2.33
2018-04-30T18:10:03.646Z,1.77
2018-04-30T18:12:31.273Z,1.27
2018-04-30T18:14:58.845Z,1.37
2018-04-30T18:17:26.438Z,1.07
2018-04-30T18:19:54.099Z,1.20
2018-04-30T18:22:21.609Z,1.00
2018-04-30T18:24:49.192Z,1.37
2018-04-30T18:27:17.752Z,1.00
2018-04-30T18:29:45.369Z,0.90
2018-04-30T18:32:13.715Z,0.70
2018-04-30T18:34:41.278Z,0.70
2018-04-30T18:37:08.889Z,0.90
2018-04-30T18:39:37.224Z,1.07
2018-04-30T18:42:04.881Z,0.90
2018-04-30T18:44:32.461Z,0.70
2018-04-30T18:47:00.042Z,0.90
2018-04-30T18:49:27.728Z,0.90
2018-04-30T18:51:56.081Z,0.80
2018-04-30T18:54:23.677Z,1.40
2018-04-30T18:56:52.037Z,1.10
2018-04-30T18:59:19.660Z,1.53
2018-04-30T19:01:47.273Z,1.00
2018-04-30T19:04:14.869Z,1.20
2018-04-30T19:06:43.193Z,1.20
2018-04-30T19:09:10.755Z,1.27
2018-04-30T19:11:38.323Z,1.23
2018-04-30T19:14:05.930Z,1.67
2018-04-30T19:16:34.277Z,1.20
2018-04-30T19:19:01.841Z,1.70
2018-04-30T19:21:29.461Z,1.50
2018-04-30T19:23:57.788Z,1.47
2018-04-30T19:26:25.350Z,3.70
2018-04-30T19:28:52.912Z,1.60
2018-04-30T19:31:20.508Z,1.70
2018-04-30T19:33:48.951Z,1.73
2018-04-30T19:36:16.477Z,1.70
2018-04-30T19:38:44.818Z,1.70
2018-04-30T19:41:12.487Z,1.93
2018-04-30T19:43:40.074Z,2.53
2018-04-30T19:46:08.434Z,2.67
2018-04-30T19:48:36.028Z,2.30
2018-04-30T19:51:04.378Z,2.37
2018-04-30T19:53:31.985Z,2.37
2018-04-30T19:56:00.342Z,2.40
2018-04-30T19:58:27.928Z,3.03
2018-04-30T20:00:56.396Z,2.57
2018-04-30T20:03:24.030Z,3.43
2018-04-30T20:05:51.857Z,2.73
2018-04-30T20:08:20.203Z,3.13
2018-04-30T20:10:47.798Z,3.53
2018-04-30T20:13:15.423Z,3.47
2018-04-30T20:15:43.026Z,4.43
2018-04-30T20:18:11.350Z,5.07
2018-04-30T20:20:38.946Z,4.80
2018-04-30T20:23:06.533Z,5.57
2018-04-30T20:25:34.103Z,5.20
2018-04-30T20:28:02.467Z,6.83
2018-04-30T20:30:30.046Z,6.37
2018-04-30T20:32:58.477Z,7.50
2018-04-30T20:35:26.082Z,6.97
2018-04-30T20:37:55.684Z,8.13
2018-04-30T20:40:24.058Z,7.43
2018-04-30T20:42:51.676Z,8.23
2018-04-30T20:45:20.046Z,8.33
2018-04-30T20:47:47.642Z,9.60
2018-04-30T20:50:15.266Z,9.83
2018-04-30T20:52:43.661Z,10.53
2018-04-30T20:55:12.037Z,9.50
2018-04-30T20:57:40.397Z,10.30
2018-04-30T21:00:07.989Z,10.90
2018-04-30T21:02:37.517Z,11.37
2018-04-30T21:05:06.777Z,11.40
2018-04-30T21:07:34.391Z,12.27
2018-04-30T21:10:02.004Z,15.90
2018-04-30T21:12:30.504Z,15.43
2018-04-30T21:14:58.155Z,17.47
2018-04-30T21:17:25.820Z,17.80
2018-04-30T21:19:55.277Z,18.50
2018-04-30T21:22:23.651Z,20.37
2018-04-30T21:24:51.988Z,16.87
2018-04-30T21:27:19.594Z,18.60
2018-04-30T21:29:47.958Z,17.93
2018-04-30T21:32:15.546Z,17.00
2018-04-30T21:34:43.994Z,14.53
2018-04-30T21:37:12.320Z,15.63
2018-04-30T21:39:40.703Z,15.13
2018-04-30T21:42:09.051Z,14.93
2018-04-30T21:44:36.648Z,17.00
2018-04-30T21:47:04.276Z,16.83
2018-04-30T21:49:31.916Z,15.80
2018-04-30T21:51:59.503Z,18.03
2018-04-30T21:54:27.097Z,16.50
2018-04-30T21:56:55.458Z,15.43
2018-04-30T21:59:23.031Z,17.10
2018-04-30T22:01:50.649Z,18.03
2018-04-30T22:04:18.297Z,15.83
2018-04-30T22:06:46.673Z,16.93
2018-04-30T22:09:15.021Z,15.57
2018-04-30T22:11:42.665Z,17.87
2018-04-30T22:14:10.374Z,16.63
2018-04-30T22:16:37.980Z,17.03
2018-04-30T22:19:05.547Z,16.43
2018-04-30T22:21:33.138Z,18.33
2018-04-30T22:24:00.756Z,15.47
2018-04-30T22:26:29.108Z,13.97
2018-04-30T22:28:56.684Z,14.13
2018-04-30T22:31:24.272Z,13.07
2018-04-30T22:33:51.914Z,13.53
2018-04-30T22:36:20.282Z,13.67
2018-04-30T22:38:47.863Z,14.67
2018-04-30T22:41:16.242Z,13.53
2018-04-30T22:43:44.617Z,14.10
2018-04-30T22:46:12.179Z,12.10
2018-04-30T22:48:39.785Z,11.30
2018-04-30T22:51:07.377Z,11.30
2018-04-30T22:53:34.973Z,8.47
2018-04-30T22:56:02.575Z,7.23
2018-04-30T22:58:30.161Z,8.53
2018-04-30T23:00:57.753Z,7.60
2018-04-30T23:03:25.367Z,6.03
2018-04-30T23:05:53.327Z,4.33
2018-04-30T23:08:20.890Z,5.30
2018-04-30T23:10:48.488Z,3.90
2018-04-30T23:13:16.104Z,2.97
2018-04-30T23:15:44.683Z,3.50
2018-04-30T23:18:12.296Z,2.73
2018-04-30T23:20:40.638Z,3.57
2018-04-30T23:23:08.246Z,3.90
2018-04-30T23:25:36.601Z,3.43
2018-04-30T23:28:04.217Z,2.57
2018-04-30T23:30:31.808Z,2.30
2018-04-30T23:32:59.381Z,1.87
2018-04-30T23:35:26.977Z,1.90
2018-04-30T23:37:55.349Z,1.73
2018-04-30T23:40:22.931Z,1.50
2018-04-30T23:42:51.293Z,3.93
2018-04-30T23:45:18.886Z,2.43
2018-04-30T23:47:46.477Z,3.23
2018-04-30T23:50:14.076Z,2.70
2018-04-30T23:52:41.662Z,2.73
2018-04-30T23:55:09.282Z,3.07
2018-04-30T23:57:36.874Z,1.97
